Terminal Aerodrome Forecast
Issued by NWS Central Illinois

Home | Current Version | Previous Version | Text Only | Print | Product List | Glossary On
Versions: 1 2 3 4 5 6 7 8 9 10 11 12 13 14 15 16 17 18 19 20 21 22 23 24 25
773
FTUS43 KILX 250529
TAFSPI
TAF
KSPI 250529Z 2506/2606 28018G27KT P6SM VCSH BKN015
     FM251100 29018G28KT P6SM OVC025
     FM251300 30016G27KT P6SM BKN040
     FM251800 29015G23KT P6SM SCT120
     FM252300 30009KT P6SM SCT200=

USA.gov is the U.S. government's official web portal to all federal, state and local government web resources and services.